Detalii statie AGROSAMI SACALAZ [00001988]

Toti senzorii

Date Temperatura solului [C]Precipitatii [mm]Voltaj baterie [mV]Leaf Wetness [Min]HC Air temperature [C]HC Relative humidity [%]Punctul de roua [C]
medieminmaxsumaultimatimpmedieminmaxmediemediemin
2018-12-09 15:00:00 0 7332 7.77 6.97 8.3 0 0 0
2018-12-09 16:00:00 0 7304 7.51 6.82 7.97 0 0 0
2018-12-09 17:00:00 0 7166 6.13 5.74 6.65 0 0 0
2018-12-09 18:00:00 0 7118 5.01 4.78 5.6 0 0 0
2018-12-09 19:00:00 0 7080 4.5 3.95 4.92 0 0 0
2018-12-09 20:00:00 0 7050 3.45 3.16 3.78 0 0 0
2018-12-09 21:00:00 0 7050 3.02 2.89 3.21 0 0 0
2018-12-09 22:00:00 0 7040 3.44 3.12 3.73 0 0 0
2018-12-09 23:00:00 0 7040 3.08 2.86 3.67 0 0 0
2018-12-10 00:00:00 0 7030 3.08 3.01 3.14 0 0 0
2018-12-10 01:00:00 0 7020 3.2 2.96 3.44 0 0 0
2018-12-10 02:00:00 0 7020 3.1 2.46 3.6 0 0 0
2018-12-10 03:00:00 0 7020 2.46 2.23 2.6 0 0 0
2018-12-10 04:00:00 0 7010 2.4 2.03 2.67 0 0 0
2018-12-10 05:00:00 0 7000 2.47 2.32 2.59 0 0 0
2018-12-10 06:00:00 0 7010 2.09 1.9 2.46 0 0 0
2018-12-10 07:00:00 0 6992 3.06 2.53 3.35 0 0 0
2018-12-10 08:00:00 0 6992 3.36 2.52 4.24 0 0 0
2018-12-10 09:00:00 0 7000 4.48 4.28 4.78 0 0 0
2018-12-10 10:00:00 0 7324 5.39 4.72 6.69 0 0 0
2018-12-10 11:00:00 0 7332 7.96 6.94 8.74 0 0 0
2018-12-10 12:00:00 0 7332 9.46 8.81 10.25 0 0 0
2018-12-10 13:00:00 0 7324 9.73 9.09 10 0 0 0
2018-12-10 14:00:00 0 7304 9.93 8.99 10.72 0 0 0
2018-12-10 15:00:00 0 7342 8.82 8.09 9.37 0 0 0
2018-12-10 16:00:00 0 7284 7.68 7.12 8.65 0 0 0
2018-12-10 17:00:00 0 7166 5.3 4.44 6.74 0 0 0
2018-12-10 18:00:00 0 7108 4.72 4.51 4.88 0 0 0
2018-12-10 19:00:00 0 7070 3.92 3.07 4.68 0 0 0
2018-12-10 20:00:00 0 7050 2.49 1.95 3.12 0 0 0
2018-12-10 21:00:00 0 7050 1.4 0.7 1.88 0 0 0
2018-12-10 22:00:00 0 7040 0.51 0.36 0.73 0 0 0
2018-12-10 23:00:00 0 7040 -0.03 -0.18 0.3 0 0 0
2018-12-11 00:00:00 0 7020 -0.65 -1.05 -0.09 0 0 0
2018-12-11 01:00:00 0 7010 -0.44 -0.79 -0.2 0 0 0
2018-12-11 02:00:00 0 7010 -0.52 -0.59 -0.45 0 0 0
2018-12-11 03:00:00 0 7020 -1.16 -1.64 -0.64 0 0 0